Time;durP1;ratioP1;P1;durP2;ratioP2;P2;SDS_P1;SDS_P2;PMS_P1;PMS_P2;Temp;Humidity;BMP_temperature;BMP_pressure;BME280_temperature;BME280_humidity;BME280_pressure;Samples;Min_cycle;Max_cycle;Signal;HPM_P1;HPM_P2
2023/05/09 00:00:30;;;;;;;27.08;24.23;;;17.20;99.90;;;;;;4975605;28;93406;-77
2023/05/09 00:02:57;;;;;;;29.85;25.10;;;17.10;99.90;;;;;;4974269;28;95632;-77
2023/05/09 00:05:24;;;;;;;28.15;25.20;;;17.10;99.90;;;;;;4974411;28;94877;-77
2023/05/09 00:07:51;;;;;;;27.88;24.98;;;17.10;99.90;;;;;;4975839;28;92486;-77
2023/05/09 00:10:18;;;;;;;29.25;25.48;;;17.10;99.90;;;;;;4975452;28;93378;-77
2023/05/09 00:12:46;;;;;;;28.40;25.08;;;17.10;99.90;;;;;;4974393;28;93209;-77
2023/05/09 00:15:13;;;;;;;27.73;24.08;;;17.10;99.90;;;;;;4974506;28;92981;-77
2023/05/09 00:17:40;;;;;;;26.10;23.58;;;17.10;99.90;;;;;;4975557;28;97286;-77
2023/05/09 00:20:10;;;;;;;27.20;24.45;;;17.10;99.90;;;;;;4975508;28;93311;-77
2023/05/09 00:22:41;;;;;;;24.92;22.52;;;17.10;99.90;;;;;;4958522;28;92965;-77
2023/05/09 00:25:09;;;;;;;25.80;22.73;;;17.10;99.90;;;;;;4973992;28;94309;-77
2023/05/09 00:27:36;;;;;;;23.63;21.23;;;17.00;99.90;;;;;;4974052;28;92791;-77
2023/05/09 00:30:04;;;;;;;25.33;22.70;;;17.00;99.90;;;;;;4972583;28;98382;-77
2023/05/09 00:32:32;;;;;;;27.20;24.38;;;17.00;99.90;;;;;;4975051;28;95416;-77
2023/05/09 00:34:59;;;;;;;24.30;21.80;;;16.90;99.90;;;;;;4974170;28;92397;-77
2023/05/09 00:37:29;;;;;;;23.38;21.13;;;16.90;99.90;;;;;;4957485;28;92439;-77
2023/05/09 00:39:56;;;;;;;24.17;21.60;;;16.90;99.90;;;;;;4957449;28;96308;-77
2023/05/09 00:42:23;;;;;;;25.13;22.40;;;16.90;99.90;;;;;;4973698;28;94136;-77
2023/05/09 00:44:50;;;;;;;24.75;22.20;;;16.90;99.90;;;;;;4973830;28;92422;-77
2023/05/09 00:47:17;;;;;;;23.75;21.35;;;16.80;99.90;;;;;;4975765;28;91680;-77
2023/05/09 00:49:44;;;;;;;23.52;21.23;;;16.80;99.90;;;;;;4975074;28;93526;-77
2023/05/09 00:52:11;;;;;;;22.48;20.27;;;16.80;99.90;;;;;;4972662;28;92783;-77
2023/05/09 00:54:39;;;;;;;20.85;18.77;;;16.70;99.90;;;;;;4972362;28;94835;-77
2023/05/09 00:57:06;;;;;;;23.25;20.92;;;16.70;99.90;;;;;;4973807;28;92685;-77
2023/05/09 00:59:34;;;;;;;24.13;21.73;;;16.70;99.90;;;;;;4973438;28;95546;-77
2023/05/09 01:02:01;;;;;;;23.17;20.73;;;16.70;99.90;;;;;;4975006;28;92432;-77
2023/05/09 01:04:27;;;;;;;20.35;18.30;;;16.70;99.90;;;;;;4974901;28;92838;-77
2023/05/09 01:07:20;;;;;;;19.50;17.63;;;16.60;99.90;;;;;;4957368;28;92436;-77
2023/05/09 01:10:01;;;;;;;21.60;19.40;;;16.70;99.90;;;;;;4973413;28;95904;-77
2023/05/09 01:12:34;;;;;;;21.15;19.05;;;16.60;99.90;;;;;;4975149;28;92979;-77
2023/05/09 01:15:11;;;;;;;21.58;19.38;;;16.60;99.90;;;;;;4974050;28;93010;-77
2023/05/09 01:17:56;;;;;;;21.70;19.50;;;16.60;99.90;;;;;;4973309;28;92608;-77
2023/05/09 01:20:38;;;;;;;20.67;18.67;;;16.60;99.90;;;;;;4972222;28;98093;-77
2023/05/09 01:23:16;;;;;;;23.10;20.17;;;16.60;99.90;;;;;;4973170;28;98531;-77
2023/05/09 01:25:52;;;;;;;20.92;18.77;;;16.60;99.90;;;;;;4974752;28;92587;-77
2023/05/09 01:28:39;;;;;;;20.17;18.02;;;16.50;99.90;;;;;;4973719;28;92486;-77
2023/05/09 01:31:08;;;;;;;19.90;17.70;;;16.50;99.90;;;;;;4973515;28;92840;-77
2023/05/09 01:33:39;;;;;;;20.25;18.10;;;16.40;99.90;;;;;;4956761;28;95474;-77
2023/05/09 01:36:11;;;;;;;21.00;18.83;;;16.40;99.90;;;;;;4973421;28;92428;-77
2023/05/09 01:38:41;;;;;;;20.52;18.42;;;16.40;99.90;;;;;;4973592;28;92430;-77
2023/05/09 01:41:09;;;;;;;19.90;17.95;;;16.40;99.90;;;;;;4973086;28;95771;-77
2023/05/09 01:43:37;;;;;;;18.55;16.75;;;16.40;99.90;;;;;;4974294;28;93087;-77
2023/05/09 01:46:06;;;;;;;19.52;17.65;;;16.30;99.90;;;;;;4971867;28;94887;-77
2023/05/09 01:48:36;;;;;;;19.08;17.13;;;16.30;99.90;;;;;;4973003;28;92536;-77
2023/05/09 01:51:04;;;;;;;18.05;16.02;;;16.30;99.90;;;;;;4956802;28;95975;-77
2023/05/09 01:57:58;;;;;;;16.48;14.77;;;16.40;99.90;;;;;;4972679;28;92540;-77
2023/05/09 02:00:26;;;;;;;16.83;15.13;;;16.20;99.90;;;;;;4972623;28;92464;-77
2023/05/09 02:02:54;;;;;;;18.35;16.55;;;16.20;99.90;;;;;;4972385;28;94203;-77
2023/05/09 02:05:26;;;;;;;16.98;15.23;;;16.20;99.90;;;;;;4976131;28;92352;-77
2023/05/09 02:07:57;;;;;;;17.35;15.68;;;16.20;99.90;;;;;;4977825;28;92862;-77
2023/05/09 02:10:26;;;;;;;17.48;15.88;;;16.10;99.90;;;;;;4976247;28;92559;-77
2023/05/09 02:12:54;;;;;;;16.88;15.10;;;16.10;99.90;;;;;;4974659;28;98179;-77
2023/05/09 02:15:23;;;;;;;17.65;15.85;;;16.10;99.90;;;;;;4959767;28;98066;-77
2023/05/09 02:17:50;;;;;;;16.77;15.10;;;16.10;99.90;;;;;;4977371;28;92386;-77
2023/05/09 02:20:17;;;;;;;17.58;15.77;;;16.00;99.90;;;;;;4959843;28;92479;-77
2023/05/09 02:22:45;;;;;;;17.42;15.80;;;16.00;99.90;;;;;;4975301;28;95667;-77
2023/05/09 02:25:16;;;;;;;16.42;14.85;;;16.10;99.90;;;;;;4959614;28;95582;-77
2023/05/09 02:27:46;;;;;;;17.77;15.85;;;16.00;99.90;;;;;;4959580;28;92449;-77
2023/05/09 02:30:23;;;;;;;17.55;15.90;;;16.10;99.90;;;;;;4959972;28;91750;-77
2023/05/09 02:33:03;;;;;;;18.38;16.63;;;16.10;99.90;;;;;;4975609;28;95911;-77
2023/05/09 02:35:31;;;;;;;18.60;16.67;;;16.10;99.90;;;;;;4977053;28;93644;-77
2023/05/09 02:37:59;;;;;;;18.02;16.02;;;16.00;99.90;;;;;;4974467;28;95002;-77
2023/05/09 02:40:28;;;;;;;19.13;17.02;;;16.10;99.90;;;;;;4975853;28;93049;-77
2023/05/09 02:42:55;;;;;;;18.25;16.23;;;16.20;99.90;;;;;;4959137;28;94295;-77
2023/05/09 02:45:22;;;;;;;19.70;17.42;;;16.20;99.90;;;;;;4974995;28;107379;-77
2023/05/09 02:47:49;;;;;;;19.70;17.23;;;16.20;99.90;;;;;;4977068;28;93122;-77
2023/05/09 02:50:16;;;;;;;19.45;17.50;;;16.30;99.90;;;;;;4975159;28;92509;-77
2023/05/09 02:52:44;;;;;;;19.17;17.15;;;16.20;99.90;;;;;;4959370;28;95848;-77
2023/05/09 02:55:11;;;;;;;19.23;17.17;;;16.30;99.90;;;;;;4976801;28;92885;-77
2023/05/09 02:57:40;;;;;;;19.58;17.58;;;16.20;99.90;;;;;;4959438;28;92504;-77
2023/05/09 03:00:08;;;;;;;21.17;18.05;;;16.20;99.90;;;;;;4975147;28;92549;-77
2023/05/09 03:02:36;;;;;;;20.42;18.30;;;16.20;99.90;;;;;;4973974;28;98605;-77
2023/05/09 03:05:07;;;;;;;20.15;18.05;;;16.20;99.90;;;;;;4974555;28;96587;-77
2023/05/09 03:07:35;;;;;;;20.33;18.17;;;16.20;99.90;;;;;;4975296;28;92552;-77
2023/05/09 03:10:02;;;;;;;23.15;18.88;;;16.10;99.90;;;;;;4959084;28;92507;-77
2023/05/09 03:12:30;;;;;;;20.35;18.27;;;16.10;99.90;;;;;;4975133;28;95278;-77
2023/05/09 03:14:57;;;;;;;21.38;19.17;;;16.10;99.90;;;;;;4958040;28;96073;-77
2023/05/09 03:17:24;;;;;;;22.92;19.15;;;16.10;99.90;;;;;;4958576;28;92628;-77
2023/05/09 03:19:51;;;;;;;20.58;18.42;;;16.10;99.90;;;;;;4959338;28;91794;-77
2023/05/09 03:22:19;;;;;;;22.00;19.02;;;16.10;99.90;;;;;;4974246;28;95872;-77
2023/05/09 03:24:57;;;;;;;22.50;20.10;;;16.10;99.90;;;;;;4974801;28;95091;-77
2023/05/09 03:27:25;;;;;;;22.73;19.95;;;16.10;99.90;;;;;;4973770;28;94894;-77
2023/05/09 03:29:52;;;;;;;22.40;20.08;;;16.10;99.90;;;;;;4943117;28;92552;-77
2023/05/09 03:32:19;;;;;;;21.33;19.15;;;16.10;99.90;;;;;;4974648;28;96159;-77
2023/05/09 03:34:46;;;;;;;22.27;19.45;;;16.10;99.90;;;;;;4974644;28;94462;-77
2023/05/09 03:37:13;;;;;;;21.38;19.08;;;16.20;99.90;;;;;;4974743;28;92462;-77
2023/05/09 03:39:41;;;;;;;23.42;20.10;;;16.20;99.90;;;;;;4958809;28;92493;-77
2023/05/09 03:42:08;;;;;;;21.85;19.40;;;16.10;99.90;;;;;;4975710;28;93262;-77
2023/05/09 03:44:35;;;;;;;21.83;19.38;;;16.10;99.90;;;;;;4976329;28;93038;-77
2023/05/09 03:47:02;;;;;;;22.45;20.10;;;16.10;99.90;;;;;;4974616;28;92652;-77
2023/05/09 03:49:36;;;;;;;23.25;19.85;;;16.10;99.90;;;;;;4959444;28;92455;-77
2023/05/09 03:52:03;;;;;;;22.73;20.33;;;16.10;99.90;;;;;;4956793;28;98118;-77
2023/05/09 03:54:31;;;;;;;23.42;19.35;;;16.20;99.90;;;;;;4958147;28;97971;-77
2023/05/09 03:56:59;;;;;;;23.65;21.15;;;16.20;99.90;;;;;;4974425;28;92421;-77
2023/05/09 03:59:26;;;;;;;24.67;20.20;;;16.20;99.90;;;;;;4974388;28;92441;-77
2023/05/09 04:01:53;;;;;;;25.40;20.60;;;16.20;99.90;;;;;;4974638;28;93272;-77
2023/05/09 04:04:23;;;;;;;25.00;20.40;;;16.20;99.90;;;;;;4974259;28;95494;-77
2023/05/09 04:06:50;;;;;;;23.23;19.95;;;16.20;99.90;;;;;;4974537;28;93072;-77
2023/05/09 04:09:18;;;;;;;24.85;21.15;;;16.10;99.90;;;;;;4974597;28;91781;-77
2023/05/09 04:11:46;;;;;;;25.25;20.42;;;16.10;99.90;;;;;;4974136;28;95825;-77
2023/05/09 04:14:14;;;;;;;25.95;22.58;;;16.10;99.90;;;;;;4975247;28;93207;-77
2023/05/09 04:16:41;;;;;;;25.13;21.38;;;16.10;99.90;;;;;;4956777;28;94925;-77
2023/05/09 04:19:08;;;;;;;24.33;21.35;;;16.20;99.90;;;;;;4957911;28;92529;-77
2023/05/09 04:21:37;;;;;;;24.38;21.25;;;16.20;99.90;;;;;;4973659;28;93303;-77
2023/05/09 04:24:05;;;;;;;25.23;22.48;;;16.20;99.90;;;;;;4958036;28;95320;-77
2023/05/09 04:26:41;;;;;;;25.23;21.00;;;16.10;99.90;;;;;;4958993;28;92596;-77
2023/05/09 04:29:12;;;;;;;25.58;20.83;;;16.10;99.90;;;;;;4958200;28;92493;-77
2023/05/09 04:31:40;;;;;;;24.15;20.02;;;16.10;99.90;;;;;;4957702;28;95544;-77
2023/05/09 04:34:09;;;;;;;24.50;20.02;;;16.10;99.90;;;;;;4957825;28;95102;-77
2023/05/09 04:36:37;;;;;;;24.73;22.02;;;16.10;99.90;;;;;;4941894;28;92525;-77
2023/05/09 04:39:04;;;;;;;22.90;20.00;;;16.10;99.90;;;;;;4973975;28;92518;-77
2023/05/09 04:41:33;;;;;;;23.25;20.75;;;16.00;99.90;;;;;;4972348;28;97854;-77
2023/05/09 04:44:00;;;;;;;24.52;20.95;;;16.00;99.90;;;;;;4957463;28;98030;-77
2023/05/09 04:46:28;;;;;;;26.02;20.63;;;16.00;99.90;;;;;;4973524;28;92564;-77
2023/05/09 04:48:55;;;;;;;23.02;19.92;;;16.00;99.90;;;;;;4973680;28;92424;-77
2023/05/09 04:51:22;;;;;;;25.80;21.23;;;16.10;99.90;;;;;;4957677;28;93136;-77
2023/05/09 04:53:50;;;;;;;24.05;21.17;;;16.10;99.90;;;;;;4941541;28;95121;-77
2023/05/09 04:56:20;;;;;;;23.00;20.60;;;16.10;99.90;;;;;;4973577;28;92445;-77
2023/05/09 04:58:48;;;;;;;22.40;19.70;;;16.20;99.90;;;;;;4974198;28;91725;-77
2023/05/09 05:01:15;;;;;;;24.48;21.70;;;16.20;99.90;;;;;;4956963;28;95947;-77
2023/05/09 05:03:43;;;;;;;22.00;19.55;;;16.20;99.90;;;;;;4973702;28;95483;-77
2023/05/09 05:06:10;;;;;;;24.90;21.60;;;16.20;99.90;;;;;;4939948;28;96665;-77
2023/05/09 05:08:39;;;;;;;24.75;21.50;;;16.30;99.90;;;;;;4957762;28;92577;-77
2023/05/09 05:11:07;;;;;;;24.08;21.48;;;16.40;99.90;;;;;;4973577;28;95744;-77
2023/05/09 05:13:34;;;;;;;24.30;21.65;;;16.40;99.90;;;;;;4973357;28;95880;-77
2023/05/09 05:16:01;;;;;;;23.77;21.20;;;16.50;99.90;;;;;;4957059;28;92623;-77
2023/05/09 05:18:28;;;;;;;26.88;23.50;;;16.50;99.90;;;;;;4973374;28;92632;-77
2023/05/09 05:20:55;;;;;;;25.35;21.38;;;16.60;99.90;;;;;;4974471;28;93208;-77
2023/05/09 05:23:24;;;;;;;26.75;23.67;;;16.60;99.90;;;;;;4957309;28;95108;-77
2023/05/09 05:25:52;;;;;;;24.90;22.30;;;16.70;99.90;;;;;;4973383;28;92508;-76
2023/05/09 05:28:19;;;;;;;25.33;22.63;;;16.80;99.90;;;;;;4956984;28;92517;-77
2023/05/09 05:30:46;;;;;;;24.73;22.05;;;16.80;99.90;;;;;;4955751;28;97951;-77
2023/05/09 05:33:13;;;;;;;24.38;21.48;;;16.90;99.90;;;;;;4956696;28;97922;-77
2023/05/09 05:35:40;;;;;;;23.98;21.48;;;17.00;99.90;;;;;;4973175;28;92554;-77
2023/05/09 05:38:07;;;;;;;25.20;21.33;;;17.10;99.90;;;;;;4957054;28;92901;-77
2023/05/09 05:40:35;;;;;;;22.98;20.55;;;17.20;99.90;;;;;;4959880;28;95608;-77
2023/05/09 05:43:03;;;;;;;26.20;22.63;;;17.30;99.90;;;;;;4976312;28;94637;-77
2023/05/09 05:45:32;;;;;;;23.08;20.55;;;17.20;99.90;;;;;;4976357;28;92448;-77
2023/05/09 05:48:02;;;;;;;22.70;20.33;;;17.30;99.90;;;;;;4961097;28;91861;-77
2023/05/09 05:50:30;;;;;;;23.90;21.30;;;17.30;99.90;;;;;;4976177;28;95950;-77
2023/05/09 05:52:57;;;;;;;26.80;23.15;;;17.40;99.90;;;;;;4960123;28;95767;-77
2023/05/09 05:55:24;;;;;;;26.30;22.70;;;17.40;99.90;;;;;;4975010;28;94972;-77
2023/05/09 05:57:51;;;;;;;26.88;23.15;;;17.40;99.90;;;;;;4944051;28;92617;-77
2023/05/09 06:00:19;;;;;;;25.98;23.25;;;17.40;99.90;;;;;;4960066;28;95570;-77
2023/05/09 06:02:52;;;;;;;25.55;22.95;;;17.40;99.90;;;;;;4960911;28;95718;-77
2023/05/09 06:05:27;;;;;;;23.50;21.02;;;17.40;99.90;;;;;;4976102;28;92504;-77
2023/05/09 06:07:54;;;;;;;25.20;22.55;;;17.40;99.90;;;;;;4960038;28;92574;-77
2023/05/09 06:10:21;;;;;;;26.90;22.80;;;17.50;99.90;;;;;;4976036;28;94374;-77
2023/05/09 06:12:48;;;;;;;25.15;22.60;;;17.40;99.90;;;;;;4977852;28;91911;-77
2023/05/09 06:15:16;;;;;;;25.20;22.35;;;17.40;99.90;;;;;;4959917;28;92571;-77
2023/05/09 06:17:46;;;;;;;25.30;22.70;;;17.40;99.90;;;;;;4975983;28;92504;-77
2023/05/09 06:20:13;;;;;;;25.40;22.73;;;17.40;99.90;;;;;;4974711;28;98560;-77
2023/05/09 06:22:40;;;;;;;25.00;22.30;;;17.40;99.90;;;;;;4975082;28;98126;-77
2023/05/09 06:25:07;;;;;;;24.58;21.98;;;17.50;99.90;;;;;;4975895;28;92508;-77
2023/05/09 06:27:36;;;;;;;26.80;23.33;;;17.50;99.90;;;;;;4975550;28;92408;-77
2023/05/09 06:30:04;;;;;;;27.40;22.83;;;17.50;99.90;;;;;;4976023;28;93450;-77
2023/05/09 06:32:40;;;;;;;24.02;21.52;;;17.60;99.90;;;;;;4961080;28;93506;-77
2023/05/09 06:35:07;;;;;;;24.33;21.60;;;17.50;99.90;;;;;;4959410;28;92496;-77
2023/05/09 06:37:34;;;;;;;23.38;20.92;;;17.60;99.90;;;;;;4976852;28;101695;-77
2023/05/09 06:40:01;;;;;;;25.38;22.85;;;17.70;99.90;;;;;;4977240;28;93332;-77
2023/05/09 06:42:28;;;;;;;24.05;21.52;;;17.80;99.90;;;;;;4975596;28;93047;-77
2023/05/09 06:44:55;;;;;;;26.05;23.30;;;17.90;99.90;;;;;;4974694;28;94856;-77
2023/05/09 06:47:22;;;;;;;24.58;21.92;;;18.00;99.90;;;;;;4976941;28;92440;-77
2023/05/09 06:49:49;;;;;;;25.27;22.67;;;18.20;99.90;;;;;;4976512;28;93369;-77
2023/05/09 06:52:16;;;;;;;25.33;22.73;;;18.40;99.90;;;;;;4976854;28;93302;-77
2023/05/09 06:54:43;;;;;;;26.42;23.65;;;18.60;99.90;;;;;;4976852;28;92451;-77
2023/05/09 06:57:10;;;;;;;24.25;21.30;;;18.70;99.90;;;;;;4976792;28;92508;-80
2023/05/09 06:59:37;;;;;;;22.50;20.17;;;18.80;99.90;;;;;;4976303;28;95087;-78
2023/05/09 07:02:04;;;;;;;24.48;22.00;;;18.90;99.90;;;;;;4943228;28;95777;-78
2023/05/09 07:04:31;;;;;;;23.40;21.02;;;19.00;99.90;;;;;;4975980;28;103043;-78
2023/05/09 07:06:59;;;;;;;23.77;21.25;;;18.90;99.90;;;;;;4989215;28;92527;-76
2023/05/09 07:09:27;;;;;;;24.20;21.60;;;18.80;99.90;;;;;;4980451;28;98336;-78
2023/05/09 07:11:54;;;;;;;24.63;21.20;;;18.80;99.90;;;;;;4998414;28;95508;-77
2023/05/09 07:14:21;;;;;;;24.98;22.48;;;18.80;99.90;;;;;;4998747;28;92982;-77
2023/05/09 07:16:48;;;;;;;26.42;23.33;;;18.70;99.90;;;;;;4998266;28;92514;-76
2023/05/09 07:19:15;;;;;;;25.63;22.30;;;18.70;99.90;;;;;;4981838;28;93362;-77
2023/05/09 07:21:42;;;;;;;25.08;22.38;;;18.70;99.90;;;;;;5015797;28;93114;-77
2023/05/09 07:24:09;;;;;;;25.52;22.10;;;18.60;99.90;;;;;;4981749;28;93060;-79
2023/05/09 07:26:36;;;;;;;25.65;22.95;;;18.70;99.90;;;;;;4998178;28;91847;-77
2023/05/09 07:29:03;;;;;;;27.80;22.88;;;18.70;99.90;;;;;;4981832;28;93230;-77
2023/05/09 07:31:30;;;;;;;26.75;22.40;;;18.80;99.90;;;;;;5015750;28;98244;-77
2023/05/09 07:33:57;;;;;;;26.15;23.40;;;18.70;99.90;;;;;;4996675;28;95493;-78
2023/05/09 07:36:24;;;;;;;25.30;22.58;;;18.70;99.90;;;;;;4998521;28;92489;-81
2023/05/09 07:38:52;;;;;;;28.23;22.98;;;18.60;99.90;;;;;;4981285;28;93607;-78
2023/05/09 07:41:19;;;;;;;29.38;22.10;;;18.60;99.90;;;;;;4997736;28;95505;-78
2023/05/09 07:43:46;;;;;;;26.77;22.52;;;18.60;99.90;;;;;;4965064;28;92566;-78
2023/05/09 07:46:13;;;;;;;27.27;24.23;;;18.60;99.90;;;;;;5015735;28;92462;-77
2023/05/09 07:48:40;;;;;;;29.30;24.15;;;18.50;99.90;;;;;;4997903;28;94195;-80
2023/05/09 07:51:07;;;;;;;29.15;24.10;;;18.50;99.90;;;;;;4981478;28;96280;-80
2023/05/09 07:53:34;;;;;;;31.80;25.60;;;18.40;99.90;;;;;;4981246;28;92455;-80
2023/05/09 07:56:01;;;;;;;30.80;26.60;;;18.40;99.90;;;;;;4980974;28;92510;-80
2023/05/09 07:58:28;;;;;;;29.58;25.83;;;18.40;99.90;;;;;;4979284;28;109991;-80
2023/05/09 08:00:55;;;;;;;33.25;26.65;;;18.40;99.90;;;;;;4980984;28;95486;-80
2023/05/09 08:03:22;;;;;;;33.45;26.90;;;18.40;99.90;;;;;;4997558;28;92416;-80
2023/05/09 08:05:54;;;;;;;35.90;27.70;;;18.40;99.90;;;;;;4980371;28;92567;-80
2023/05/09 08:08:22;;;;;;;38.45;28.23;;;18.50;99.90;;;;;;4997282;28;95893;-80
2023/05/09 08:10:49;;;;;;;39.67;29.85;;;18.50;99.90;;;;;;4980902;28;95614;-80
2023/05/09 08:13:17;;;;;;;44.53;31.52;;;18.50;99.90;;;;;;4997122;28;92602;-80
2023/05/09 08:15:44;;;;;;;45.22;31.23;;;18.60;99.90;;;;;;4998299;28;91795;-80
2023/05/09 08:18:11;;;;;;;40.70;29.52;;;18.70;99.90;;;;;;4997793;28;93189;-80
2023/05/09 08:20:38;;;;;;;39.80;29.95;;;18.80;99.90;;;;;;4997149;28;95768;-80
2023/05/09 08:23:05;;;;;;;37.72;29.90;;;18.90;99.90;;;;;;5013836;28;94703;-80
2023/05/09 08:25:32;;;;;;;36.67;29.30;;;19.00;99.90;;;;;;4980977;28;95065;-80
2023/05/09 08:27:59;;;;;;;39.17;28.70;;;19.20;99.90;;;;;;4980018;28;95774;-80
2023/05/09 08:30:28;;;;;;;38.28;29.65;;;19.40;99.90;;;;;;4980654;28;95824;-80
2023/05/09 08:32:55;;;;;;;37.80;27.65;;;19.60;99.90;;;;;;4981279;28;92422;-80
2023/05/09 08:35:22;;;;;;;34.50;28.33;;;19.60;99.90;;;;;;4964479;28;92498;-80
2023/05/09 08:37:49;;;;;;;36.67;27.65;;;19.80;99.90;;;;;;4980368;28;96283;-80
2023/05/09 08:40:17;;;;;;;33.85;27.85;;;19.90;99.90;;;;;;4980629;28;95607;-80
2023/05/09 08:42:44;;;;;;;34.72;27.58;;;19.90;99.90;;;;;;4948321;28;92746;-80
2023/05/09 08:45:15;;;;;;;34.55;28.05;;;20.00;99.90;;;;;;5015099;28;92423;-80
2023/05/09 08:47:44;;;;;;;36.40;27.85;;;20.20;99.90;;;;;;5013764;28;95582;-80
2023/05/09 08:50:13;;;;;;;37.08;28.92;;;20.30;99.90;;;;;;4980501;28;95821;-80
2023/05/09 08:52:41;;;;;;;36.50;27.30;;;20.30;99.90;;;;;;5014913;28;92401;-80
2023/05/09 08:55:08;;;;;;;34.88;27.27;;;20.40;99.90;;;;;;4963877;28;101591;-80
2023/05/09 08:57:36;;;;;;;33.22;27.35;;;20.30;99.90;;;;;;4964118;28;95808;-80
2023/05/09 09:00:09;;;;;;;34.53;26.75;;;20.50;99.90;;;;;;4979907;28;95660;-80
2023/05/09 09:02:39;;;;;;;37.20;28.08;;;20.70;99.90;;;;;;5014941;28;92445;-80
2023/05/09 09:05:07;;;;;;;35.92;28.13;;;20.70;99.90;;;;;;4980869;28;91781;-80
2023/05/09 09:07:45;;;;;;;32.53;26.00;;;20.90;99.90;;;;;;4973753;28;93503;-80
2023/05/09 09:10:14;;;;;;;35.70;28.33;;;21.00;99.90;;;;;;4957638;28;92991;-80
2023/05/09 09:12:42;;;;;;;39.30;28.58;;;21.10;99.90;;;;;;4956410;28;94880;-80
2023/05/09 09:15:14;;;;;;;37.97;29.25;;;21.10;99.90;;;;;;4976140;28;92791;-81
2023/05/09 09:17:46;;;;;;;37.80;29.52;;;21.10;99.90;;;;;;4960828;28;95979;-80
2023/05/09 09:20:15;;;;;;;37.03;29.85;;;21.00;99.90;;;;;;4976897;28;92976;-81
2023/05/09 09:22:44;;;;;;;35.65;28.70;;;21.00;99.90;;;;;;4960942;28;92533;-80
2023/05/09 09:25:11;;;;;;;35.25;28.77;;;21.10;99.90;;;;;;4976922;28;92486;-80
2023/05/09 09:27:38;;;;;;;38.78;30.20;;;21.30;99.90;;;;;;4976678;28;95794;-80
2023/05/09 09:30:10;;;;;;;40.42;30.48;;;21.50;99.90;;;;;;4960888;28;93077;-80
2023/05/09 09:32:41;;;;;;;36.35;30.27;;;21.70;99.90;;;;;;4976960;28;92570;-80
2023/05/09 09:35:10;;;;;;;35.78;27.92;;;21.70;99.90;;;;;;4976596;28;92480;-81
2023/05/09 09:37:39;;;;;;;35.75;28.45;;;21.90;99.90;;;;;;4975466;28;98022;-80
2023/05/09 09:40:08;;;;;;;37.60;28.85;;;22.00;99.90;;;;;;4977541;28;96364;-81
2023/05/09 09:42:46;;;;;;;37.30;29.83;;;21.90;99.90;;;;;;4976735;28;92551;-81
2023/05/09 09:45:16;;;;;;;42.80;31.58;;;21.70;99.90;;;;;;4976696;28;93344;-81
2023/05/09 09:47:45;;;;;;;39.78;30.60;;;21.60;99.90;;;;;;4992884;28;94469;-80
2023/05/09 09:50:15;;;;;;;36.95;31.10;;;21.30;99.90;;;;;;4977576;28;93923;-80
2023/05/09 09:52:52;;;;;;;40.22;31.02;;;21.00;99.90;;;;;;4960242;28;92549;-80
2023/05/09 09:55:21;;;;;;;35.70;27.00;;;20.90;99.90;;;;;;4960657;28;91756;-80
2023/05/09 09:57:49;;;;;;;36.83;29.40;;;20.60;99.90;;;;;;4976486;28;93144;-80
2023/05/09 10:00:18;;;;;;;40.70;32.03;;;20.50;99.90;;;;;;4977416;28;92489;-80
2023/05/09 10:02:47;;;;;;;38.90;29.67;;;20.60;99.90;;;;;;4975146;28;95530;-81
2023/05/09 10:05:33;;;;;;;39.75;29.63;;;20.60;99.90;;;;;;4977500;28;92406;-80
2023/05/09 10:08:03;;;;;;;42.65;29.30;;;20.70;99.90;;;;;;4958503;28;95760;-81
2023/05/09 10:10:32;;;;;;;36.60;28.25;;;20.60;99.90;;;;;;4976209;28;93027;-80
2023/05/09 10:13:03;;;;;;;41.38;28.73;;;20.70;99.90;;;;;;4942395;28;92533;-80
2023/05/09 10:15:31;;;;;;;45.92;31.95;;;20.90;99.90;;;;;;4958774;28;92537;-80
2023/05/09 10:18:09;;;;;;;41.50;31.65;;;20.90;99.90;;;;;;4976175;28;93242;-80
2023/05/09 10:20:39;;;;;;;46.10;33.45;;;20.90;99.90;;;;;;4976499;28;91842;-79
2023/05/09 10:23:07;;;;;;;44.63;31.92;;;21.00;99.90;;;;;;4974712;28;92482;-79
2023/05/09 10:25:39;;;;;;;45.97;32.95;;;20.90;99.90;;;;;;4974637;28;92467;-79
2023/05/09 10:28:12;;;;;;;40.17;30.13;;;21.00;99.90;;;;;;4973258;28;98645;-79
2023/05/09 10:30:57;;;;;;;49.85;34.95;;;20.90;99.90;;;;;;4976127;28;95396;-79
2023/05/09 10:33:30;;;;;;;42.20;29.60;;;20.60;99.90;;;;;;4974870;28;92448;-79
2023/05/09 10:36:00;;;;;;;41.22;31.10;;;20.40;99.90;;;;;;4942497;28;92739;-79
2023/05/09 10:38:27;;;;;;;41.17;29.42;;;20.30;99.90;;;;;;4974646;28;93668;-79
2023/05/09 10:40:55;;;;;;;46.30;31.63;;;20.30;99.90;;;;;;4957841;28;107338;-79
2023/05/09 10:43:24;;;;;;;45.45;33.78;;;20.10;99.90;;;;;;4958508;28;92410;-79
2023/05/09 10:45:51;;;;;;;45.38;33.28;;;20.20;99.90;;;;;;4976243;28;91710;-79
2023/05/09 10:48:18;;;;;;;45.97;34.47;;;20.40;99.90;;;;;;4974324;28;93264;-79
2023/05/09 10:50:46;;;;;;;50.83;35.08;;;20.50;99.90;;;;;;4974321;28;95827;-79
2023/05/09 10:53:15;;;;;;;50.20;34.63;;;20.80;99.90;;;;;;4973070;28;95463;-79
2023/05/09 10:55:54;;;;;;;42.65;32.08;;;20.90;99.90;;;;;;4974364;28;92563;-79
2023/05/09 10:58:30;;;;;;;49.92;35.30;;;21.20;99.90;;;;;;4958082;28;96146;-79
2023/05/09 11:00:59;;;;;;;49.47;35.17;;;21.40;99.90;;;;;;4958283;28;95733;-79
2023/05/09 11:03:28;;;;;;;44.05;28.83;;;21.40;99.90;;;;;;4974002;28;92551;-79
2023/05/09 11:05:57;;;;;;;51.00;35.25;;;21.50;99.90;;;;;;4936327;28;1201765;-79
2023/05/09 11:08:28;;;;;;;51.53;32.30;;;21.60;99.90;;;;;;4962056;28;95667;-79
2023/05/09 11:10:59;;;;;;;45.42;32.35;;;21.90;99.90;;;;;;4979120;28;93213;-79
2023/05/09 11:13:30;;;;;;;54.10;34.92;;;22.10;99.90;;;;;;4994913;28;92424;-79
2023/05/09 11:16:00;;;;;;;51.17;34.80;;;22.30;99.90;;;;;;4995608;28;92548;-79
2023/05/09 11:18:28;;;;;;;52.03;35.90;;;22.60;99.90;;;;;;4993767;28;95614;-79
2023/05/09 11:20:56;;;;;;;45.55;33.30;;;22.50;99.90;;;;;;4994407;28;97955;-79
2023/05/09 11:23:29;;;;;;;50.70;34.95;;;22.50;99.90;;;;;;4996376;28;92654;-79
2023/05/09 11:26:06;;;;;;;;;;;22.40;99.90;;;;;;4995843;28;92396;-79
2023/05/09 11:28:37;;;;;;;53.55;34.78;;;22.20;99.90;;;;;;4997867;28;93235;-79
2023/05/09 11:31:15;;;;;;;51.30;35.30;;;22.20;99.90;;;;;;4995890;28;93255;-79
2023/05/09 11:33:45;;;;;;;64.25;39.75;;;22.20;99.90;;;;;;4995009;28;92462;-79
2023/05/09 11:36:28;;;;;;;57.75;37.85;;;22.10;99.90;;;;;;4995608;28;92238;-79
2023/05/09 11:39:07;;;;;;;52.75;36.13;;;22.30;99.90;;;;;;4996249;28;93413;-79
2023/05/09 11:41:50;;;;;;;52.00;36.65;;;22.50;99.90;;;;;;4994888;28;93399;-79
2023/05/09 11:44:19;;;;;;;51.72;36.13;;;22.70;99.90;;;;;;4976741;28;95045;-79
2023/05/09 11:46:48;;;;;;;59.78;38.50;;;22.80;99.90;;;;;;4994777;28;92453;-78
2023/05/09 11:49:15;;;;;;;58.60;39.38;;;23.10;99.90;;;;;;4995358;28;93633;-78
2023/05/09 11:51:42;;;;;;;60.20;39.97;;;23.20;99.90;;;;;;4994558;28;92516;-78
2023/05/09 11:54:11;;;;;;;54.70;38.97;;;23.50;99.90;;;;;;4994444;28;92528;-79
2023/05/09 11:56:39;;;;;;;56.47;39.97;;;23.60;99.90;;;;;;4994010;28;93530;-78
2023/05/09 11:59:07;;;;;;;61.08;40.35;;;23.70;99.90;;;;;;4995609;28;93138;-78
2023/05/09 12:01:35;;;;;;;66.95;43.97;;;23.50;99.90;;;;;;4994364;28;93011;-79
2023/05/09 12:04:04;;;;;;;61.10;40.05;;;23.50;99.90;;;;;;4994148;28;95476;-79
2023/05/09 12:06:32;;;;;;;62.45;38.42;;;23.40;99.90;;;;;;5004960;28;92907;-78
2023/05/09 12:08:59;;;;;;;59.35;39.33;;;23.10;99.90;;;;;;4979402;28;98131;-78
2023/05/09 12:11:30;;;;;;;62.78;42.35;;;23.00;99.90;;;;;;5015208;28;95506;-79
2023/05/09 12:13:57;;;;;;;64.80;40.97;;;23.00;99.90;;;;;;4980889;28;92579;-78
2023/05/09 12:16:24;;;;;;;60.63;40.72;;;22.80;99.90;;;;;;5015488;28;92980;-78
2023/05/09 12:18:52;;;;;;;58.13;39.65;;;22.60;99.90;;;;;;5015358;28;92478;-79
2023/05/09 12:21:20;;;;;;;65.13;42.83;;;22.60;99.90;;;;;;5015002;28;93142;-79
2023/05/09 12:23:47;;;;;;;68.18;42.33;;;22.50;99.90;;;;;;4997787;28;92703;-78
2023/05/09 12:26:17;;;;;;;64.68;43.45;;;22.30;99.90;;;;;;5015307;28;91657;-79
2023/05/09 12:28:44;;;;;;;69.20;45.15;;;22.20;99.90;;;;;;4996934;28;96119;-78
2023/05/09 12:31:11;;;;;;;70.00;44.95;;;22.10;99.90;;;;;;4996605;28;107466;-78
2023/05/09 12:33:39;;;;;;;71.43;47.22;;;22.00;99.90;;;;;;5013839;28;94839;-79
2023/05/09 12:36:12;;;;;;;75.32;47.08;;;22.00;99.90;;;;;;4964415;28;92627;-79
2023/05/09 12:38:39;;;;;;;76.22;47.13;;;22.00;99.90;;;;;;5015047;28;92437;-79
2023/05/09 12:41:08;;;;;;;74.45;48.03;;;21.80;99.90;;;;;;4980557;28;93029;-79